Time;durP1;ratioP1;P1;durP2;ratioP2;P2;SDS_P1;SDS_P2;PMS_P1;PMS_P2;Temp;Humidity;BMP_temperature;BMP_pressure;BME280_temperature;BME280_humidity;BME280_pressure;Samples;Min_cycle;Max_cycle;Signal;HPM_P1;HPM_P2
2022/07/02 00:00:44;;;;;;;6.65;3.92;;;;;;;;;;5015785;28;20042;-76
2022/07/02 00:03:12;;;;;;;6.85;3.78;;;;;;;;;;4997316;28;20037;-76
2022/07/02 00:05:42;;;;;;;9.38;4.68;;;;;;;;;;5015185;28;20123;-69
2022/07/02 00:08:08;;;;;;;9.38;4.95;;;;;;;;;;4997240;28;20495;-69
2022/07/02 00:10:34;;;;;;;9.55;5.03;;;;;;;;;;5015284;28;20430;-69
2022/07/02 00:13:02;;;;;;;8.07;4.78;;;;;;;;;;4997318;28;20073;-69
2022/07/02 00:15:28;;;;;;;7.72;4.97;;;;;;;;;;4996861;28;20046;-69
2022/07/02 00:17:54;;;;;;;6.20;4.70;;;;;;;;;;5015092;28;20487;-69
2022/07/02 00:20:20;;;;;;;7.97;4.65;;;;;;;;;;4996980;28;20033;-68
2022/07/02 00:22:48;;;;;;;9.15;5.05;;;;;;;;;;4997655;28;20487;-76
2022/07/02 00:25:14;;;;;;;8.80;5.18;;;;;;;;;;5020058;28;20089;-69
2022/07/02 00:27:42;;;;;;;7.97;5.30;;;;;;;;;;5000934;28;20107;-69
2022/07/02 00:30:09;;;;;;;8.73;5.10;;;;;;;;;;5034250;28;20037;-69
2022/07/02 00:32:36;;;;;;;9.10;5.05;;;;;;;;;;5016453;28;20041;-69
2022/07/02 00:35:05;;;;;;;11.75;5.90;;;;;;;;;;5021869;28;20132;-69
2022/07/02 00:37:31;;;;;;;8.32;5.40;;;;;;;;;;5016051;28;20041;-69
2022/07/02 00:39:57;;;;;;;13.73;6.18;;;;;;;;;;4999933;28;20041;-69
2022/07/02 00:42:26;;;;;;;13.40;6.20;;;;;;;;;;5016081;28;20073;-69
2022/07/02 00:44:53;;;;;;;12.10;6.00;;;;;;;;;;5043089;28;20120;-69
2022/07/02 00:47:24;;;;;;;11.63;6.60;;;;;;;;;;5038366;28;20052;-69
2022/07/02 00:49:50;;;;;;;14.90;7.95;;;;;;;;;;5000071;28;20056;-69
2022/07/02 00:52:16;;;;;;;16.63;8.38;;;;;;;;;;5015802;28;20052;-69
2022/07/02 00:54:42;;;;;;;15.18;9.10;;;;;;;;;;4983431;28;20053;-69
2022/07/02 00:57:08;;;;;;;20.20;10.00;;;;;;;;;;4999715;28;20041;-69
2022/07/02 00:59:35;;;;;;;18.20;10.68;;;;;;;;;;5015443;28;20033;-69
2022/07/02 01:02:03;;;;;;;18.42;10.60;;;;;;;;;;5033902;28;20490;-68
2022/07/02 01:04:32;;;;;;;17.77;10.10;;;;;;;;;;5033355;28;20049;-68
2022/07/02 01:07:03;;;;;;;16.30;10.05;;;;;;;;;;5015866;28;20041;-69
2022/07/02 01:12:18;;;;;;;15.18;9.50;;;;;;;;;;5019101;28;20069;-69
2022/07/02 01:14:46;;;;;;;17.58;9.13;;;;;;;;;;5015657;28;20165;-68
2022/07/02 01:17:12;;;;;;;16.30;8.90;;;;;;;;;;4999526;28;20478;-76
2022/07/02 01:19:39;;;;;;;15.07;8.05;;;;;;;;;;5033223;28;20041;-69
2022/07/02 01:22:18;;;;;;;14.05;8.38;;;;;;;;;;5015690;28;20037;-69
2022/07/02 01:24:45;;;;;;;11.95;7.68;;;;;;;;;;4997457;28;20110;-68
2022/07/02 01:27:11;;;;;;;15.20;8.43;;;;;;;;;;4996308;28;20050;-76
2022/07/02 01:29:37;;;;;;;16.52;8.30;;;;;;;;;;4980125;28;20450;-76
2022/07/02 01:32:04;;;;;;;12.90;7.57;;;;;;;;;;4995948;28;20077;-75
2022/07/02 01:34:35;;;;;;;11.75;7.80;;;;;;;;;;5001601;28;20505;-69
2022/07/02 01:37:01;;;;;;;13.32;8.13;;;;;;;;;;4995389;28;20038;-69
2022/07/02 01:39:27;;;;;;;12.52;7.80;;;;;;;;;;4983526;28;20513;-69
2022/07/02 01:41:53;;;;;;;11.80;7.30;;;;;;;;;;4995630;28;20517;-69
2022/07/02 01:44:19;;;;;;;12.77;7.25;;;;;;;;;;5011688;28;20038;-69
2022/07/02 01:46:46;;;;;;;11.15;6.72;;;;;;;;;;4995325;28;20089;-69
2022/07/02 01:49:12;;;;;;;12.90;6.72;;;;;;;;;;4995587;28;20050;-68
2022/07/02 01:51:39;;;;;;;14.10;6.40;;;;;;;;;;4995064;28;20635;-69
2022/07/02 01:54:07;;;;;;;10.38;6.40;;;;;;;;;;4995512;28;20050;-69
2022/07/02 01:56:37;;;;;;;12.80;6.60;;;;;;;;;;4994990;28;20128;-70
2022/07/02 01:59:03;;;;;;;10.13;6.43;;;;;;;;;;4995371;28;20085;-69
2022/07/02 02:01:29;;;;;;;9.32;6.40;;;;;;;;;;4993995;28;20037;-76
2022/07/02 02:03:55;;;;;;;14.13;6.55;;;;;;;;;;5012750;28;20515;-75
2022/07/02 02:06:22;;;;;;;15.20;6.18;;;;;;;;;;4996520;28;20038;-75
2022/07/02 02:08:49;;;;;;;13.10;6.97;;;;;;;;;;5002630;28;20050;-76
2022/07/02 02:11:15;;;;;;;10.32;6.05;;;;;;;;;;5005963;28;20046;-75
2022/07/02 02:13:42;;;;;;;13.27;6.07;;;;;;;;;;4995572;28;20046;-75
2022/07/02 02:16:08;;;;;;;12.15;6.30;;;;;;;;;;5013159;28;20541;-75
2022/07/02 02:18:34;;;;;;;13.98;6.55;;;;;;;;;;5012910;28;20394;-75
2022/07/02 02:21:00;;;;;;;11.88;5.95;;;;;;;;;;4995182;28;20044;-75
2022/07/02 02:23:26;;;;;;;10.23;5.80;;;;;;;;;;4995160;28;20049;-75
2022/07/02 02:25:52;;;;;;;11.25;6.13;;;;;;;;;;4994929;28;20053;-75
2022/07/02 02:28:18;;;;;;;12.57;6.15;;;;;;;;;;5012680;28;20082;-76
2022/07/02 02:30:44;;;;;;;13.10;5.90;;;;;;;;;;4994855;28;20050;-76
2022/07/02 02:33:10;;;;;;;10.18;6.40;;;;;;;;;;5012352;28;20509;-75
2022/07/02 02:35:36;;;;;;;12.10;6.40;;;;;;;;;;4994586;28;20171;-75
2022/07/02 02:38:02;;;;;;;12.20;6.15;;;;;;;;;;5012582;28;20487;-75
2022/07/02 02:40:29;;;;;;;9.13;6.28;;;;;;;;;;5011492;28;20084;-75
2022/07/02 02:42:55;;;;;;;8.90;6.25;;;;;;;;;;4994734;28;20053;-75
2022/07/02 02:45:21;;;;;;;9.73;6.15;;;;;;;;;;4994971;28;20049;-76
2022/07/02 02:47:47;;;;;;;10.25;5.90;;;;;;;;;;4978394;28;20053;-75
2022/07/02 02:50:13;;;;;;;11.48;6.72;;;;;;;;;;5008225;28;20100;-76
2022/07/02 02:52:39;;;;;;;13.32;6.65;;;;;;;;;;4994531;28;20045;-75
2022/07/02 02:55:06;;;;;;;11.23;6.90;;;;;;;;;;4994753;28;20120;-75
2022/07/02 02:57:32;;;;;;;8.98;6.30;;;;;;;;;;4992990;28;20054;-76
2022/07/02 02:59:58;;;;;;;9.73;6.65;;;;;;;;;;4994694;28;20129;-76
2022/07/02 03:02:24;;;;;;;11.20;6.57;;;;;;;;;;5011778;28;20040;-75
2022/07/02 03:04:51;;;;;;;9.40;6.43;;;;;;;;;;4994737;28;20447;-75
2022/07/02 03:07:17;;;;;;;10.48;6.65;;;;;;;;;;4982310;28;20050;-69
2022/07/02 03:09:43;;;;;;;8.57;6.05;;;;;;;;;;5006132;28;20050;-69
2022/07/02 03:12:09;;;;;;;11.70;6.28;;;;;;;;;;5002818;28;20117;-69
2022/07/02 03:14:35;;;;;;;12.52;6.50;;;;;;;;;;4994031;28;20071;-69
2022/07/02 03:17:01;;;;;;;10.93;6.40;;;;;;;;;;4994527;28;20050;-75
2022/07/02 03:19:28;;;;;;;11.05;6.57;;;;;;;;;;4994372;28;20038;-75
2022/07/02 03:21:54;;;;;;;12.80;6.60;;;;;;;;;;4978661;28;20041;-75
2022/07/02 03:24:20;;;;;;;14.40;6.53;;;;;;;;;;4994486;28;20045;-75
2022/07/02 03:26:46;;;;;;;9.25;6.43;;;;;;;;;;5011365;28;20092;-75
2022/07/02 03:29:12;;;;;;;12.30;6.18;;;;;;;;;;4994747;28;20049;-75
2022/07/02 03:31:38;;;;;;;11.75;7.00;;;;;;;;;;4993869;28;20096;-76
2022/07/02 03:34:04;;;;;;;11.63;6.93;;;;;;;;;;4994088;28;20069;-75
2022/07/02 03:36:30;;;;;;;12.45;6.93;;;;;;;;;;4978060;28;20042;-75
2022/07/02 03:38:56;;;;;;;12.38;7.40;;;;;;;;;;4995246;28;20540;-75
2022/07/02 03:41:22;;;;;;;14.05;6.93;;;;;;;;;;5015718;28;20502;-75
2022/07/02 03:43:50;;;;;;;11.45;6.97;;;;;;;;;;4997653;28;20064;-75
2022/07/02 03:46:17;;;;;;;11.57;6.93;;;;;;;;;;4998026;28;20045;-75
2022/07/02 03:48:46;;;;;;;11.93;7.40;;;;;;;;;;4997617;28;20050;-75
2022/07/02 03:51:12;;;;;;;13.15;7.35;;;;;;;;;;4998238;28;20442;-75
2022/07/02 03:53:38;;;;;;;12.55;7.35;;;;;;;;;;5015441;28;20042;-75
2022/07/02 03:56:04;;;;;;;12.30;6.47;;;;;;;;;;4998211;28;20042;-75
2022/07/02 03:58:31;;;;;;;9.73;6.65;;;;;;;;;;4997400;28;20081;-75
2022/07/02 04:00:57;;;;;;;9.65;6.85;;;;;;;;;;4994245;28;20056;-75
2022/07/02 04:03:23;;;;;;;9.75;6.88;;;;;;;;;;4973142;28;20112;-75
2022/07/02 04:05:49;;;;;;;10.70;6.45;;;;;;;;;;4995719;28;20042;-75
2022/07/02 04:08:15;;;;;;;12.57;6.70;;;;;;;;;;4997121;28;20181;-75
2022/07/02 04:10:41;;;;;;;11.57;6.50;;;;;;;;;;5014403;28;20046;-75
2022/07/02 04:13:08;;;;;;;10.00;6.75;;;;;;;;;;4997211;28;20048;-75
2022/07/02 04:15:34;;;;;;;10.40;6.57;;;;;;;;;;5013715;28;20045;-75
2022/07/02 04:18:00;;;;;;;11.55;6.30;;;;;;;;;;4996913;28;20052;-75
2022/07/02 04:20:26;;;;;;;10.10;6.50;;;;;;;;;;5015092;28;20069;-75
2022/07/02 04:22:53;;;;;;;11.27;6.32;;;;;;;;;;4996851;28;20521;-75
2022/07/02 04:25:19;;;;;;;10.30;6.15;;;;;;;;;;5014655;28;20046;-75
2022/07/02 04:27:45;;;;;;;10.60;5.78;;;;;;;;;;4996794;28;20050;-76
2022/07/02 04:30:12;;;;;;;9.45;5.55;;;;;;;;;;4996861;28;20053;-76
2022/07/02 04:32:38;;;;;;;9.23;5.65;;;;;;;;;;5014358;28;20041;-75
2022/07/02 04:35:05;;;;;;;11.63;4.97;;;;;;;;;;5014405;28;20494;-75
2022/07/02 04:37:31;;;;;;;10.02;5.90;;;;;;;;;;4996801;28;20053;-76
2022/07/02 04:39:57;;;;;;;9.30;5.32;;;;;;;;;;4996486;28;20038;-75
2022/07/02 04:42:23;;;;;;;8.38;5.22;;;;;;;;;;5014940;28;20077;-76
2022/07/02 04:44:49;;;;;;;6.72;5.03;;;;;;;;;;4996150;28;20042;-76
2022/07/02 04:47:15;;;;;;;7.97;5.38;;;;;;;;;;4996537;28;20034;-76
2022/07/02 04:49:41;;;;;;;8.00;4.90;;;;;;;;;;4979859;28;20083;-76
2022/07/02 04:52:07;;;;;;;10.13;4.80;;;;;;;;;;4996597;28;20113;-75
2022/07/02 04:54:34;;;;;;;9.05;4.70;;;;;;;;;;4996351;28;20060;-76
2022/07/02 04:57:00;;;;;;;6.97;4.70;;;;;;;;;;4995913;28;20048;-76
2022/07/02 04:59:26;;;;;;;7.10;4.30;;;;;;;;;;4996577;28;20038;-76
2022/07/02 05:01:52;;;;;;;7.03;3.80;;;;;;;;;;5013761;28;20049;-76
2022/07/02 05:04:18;;;;;;;10.05;4.18;;;;;;;;;;4996093;28;20071;-77
2022/07/02 05:06:45;;;;;;;6.13;4.10;;;;;;;;;;4996061;28;20449;-77
2022/07/02 05:09:11;;;;;;;7.07;4.00;;;;;;;;;;4995962;28;20048;-76
2022/07/02 05:11:37;;;;;;;7.22;3.47;;;;;;;;;;4996479;28;20491;-76
2022/07/02 05:14:03;;;;;;;6.00;3.58;;;;;;;;;;4995513;28;20104;-76
2022/07/02 05:16:29;;;;;;;7.32;4.10;;;;;;;;;;4996499;28;20037;-76
2022/07/02 05:18:55;;;;;;;6.63;3.30;;;;;;;;;;5013291;28;20479;-76
2022/07/02 05:21:21;;;;;;;9.00;4.13;;;;;;;;;;4995801;28;20057;-76
2022/07/02 05:23:47;;;;;;;6.45;3.30;;;;;;;;;;4995779;28;20517;-76
2022/07/02 05:26:13;;;;;;;7.90;3.40;;;;;;;;;;5009233;28;20211;-77
2022/07/02 05:28:40;;;;;;;7.38;3.45;;;;;;;;;;5031761;28;20041;-76
2022/07/02 05:31:06;;;;;;;5.57;3.10;;;;;;;;;;5015169;28;20046;-76
2022/07/02 05:33:32;;;;;;;5.30;2.80;;;;;;;;;;4999378;28;20458;-76
2022/07/02 05:35:58;;;;;;;6.85;3.00;;;;;;;;;;5014913;28;20048;-76
2022/07/02 05:38:24;;;;;;;6.57;2.97;;;;;;;;;;5015195;28;20490;-76
2022/07/02 05:40:50;;;;;;;6.65;3.13;;;;;;;;;;4998659;28;20111;-76
2022/07/02 05:43:16;;;;;;;6.45;2.85;;;;;;;;;;5032788;28;20589;-76
2022/07/02 05:45:42;;;;;;;4.43;2.53;;;;;;;;;;5015091;28;20046;-76
2022/07/02 05:48:08;;;;;;;5.78;2.75;;;;;;;;;;5014728;28;20049;-76
2022/07/02 05:50:34;;;;;;;5.05;2.80;;;;;;;;;;5031359;28;20068;-72
2022/07/02 05:53:01;;;;;;;5.95;3.03;;;;;;;;;;5015162;28;20434;-72
2022/07/02 05:55:27;;;;;;;5.88;2.90;;;;;;;;;;5015041;28;20039;-71
2022/07/02 05:57:53;;;;;;;5.25;2.45;;;;;;;;;;5014485;28;20048;-72
2022/07/02 06:00:19;;;;;;;4.78;2.75;;;;;;;;;;5015081;28;20033;-72
2022/07/02 06:02:45;;;;;;;5.47;2.70;;;;;;;;;;5031949;28;20080;-72
2022/07/02 06:07:55;;;;;;;6.35;3.00;;;;;;;;;;5000893;28;20053;-72
2022/07/02 06:10:21;;;;;;;5.22;2.30;;;;;;;;;;5014852;28;20076;-72
2022/07/02 06:12:48;;;;;;;7.80;2.72;;;;;;;;;;5014832;28;20087;-72
2022/07/02 06:15:15;;;;;;;7.25;2.63;;;;;;;;;;5014886;28;20069;-73
2022/07/02 06:17:41;;;;;;;5.07;2.45;;;;;;;;;;5014511;28;20050;-77
2022/07/02 06:20:07;;;;;;;6.78;2.25;;;;;;;;;;5031948;28;20052;-77
2022/07/02 06:22:34;;;;;;;4.72;2.22;;;;;;;;;;5014550;28;20490;-77
2022/07/02 06:25:00;;;;;;;6.05;2.33;;;;;;;;;;5013943;28;20065;-77
2022/07/02 06:27:26;;;;;;;6.15;2.00;;;;;;;;;;5030858;28;20048;-77
2022/07/02 06:29:53;;;;;;;5.68;1.98;;;;;;;;;;5014095;28;20077;-77
2022/07/02 06:32:19;;;;;;;4.95;1.95;;;;;;;;;;5032407;28;20116;-77
2022/07/02 06:34:45;;;;;;;3.65;1.70;;;;;;;;;;4998085;28;20120;-77
2022/07/02 06:37:11;;;;;;;4.45;1.90;;;;;;;;;;5014274;28;20513;-77
2022/07/02 06:39:38;;;;;;;4.07;1.77;;;;;;;;;;5014160;28;20041;-77
2022/07/02 06:42:19;;;;;;;5.05;1.80;;;;;;;;;;5013805;28;20038;-77
2022/07/02 06:44:46;;;;;;;6.43;1.88;;;;;;;;;;4999903;28;20047;-77
2022/07/02 06:47:12;;;;;;;3.97;1.90;;;;;;;;;;5030795;28;20427;-78
2022/07/02 06:49:38;;;;;;;5.43;1.80;;;;;;;;;;4997966;28;20033;-78
2022/07/02 06:52:05;;;;;;;4.60;1.70;;;;;;;;;;5013664;28;20034;-77
2022/07/02 06:54:31;;;;;;;3.83;1.80;;;;;;;;;;5014047;28;20045;-78
2022/07/02 06:56:57;;;;;;;5.47;1.95;;;;;;;;;;5013667;28;20116;-77
2022/07/02 06:59:23;;;;;;;5.00;2.15;;;;;;;;;;5014135;28;20045;-78
2022/07/02 07:01:49;;;;;;;5.72;2.00;;;;;;;;;;5014147;28;20042;-77
2022/07/02 07:04:16;;;;;;;4.18;1.90;;;;;;;;;;5013959;28;20060;-78
2022/07/02 07:06:57;;;;;;;5.03;1.67;;;;;;;;;;5013712;28;20041;-78
2022/07/02 07:09:26;;;;;;;4.57;1.50;;;;;;;;;;5013754;28;20056;-77
2022/07/02 07:11:52;;;;;;;6.03;1.98;;;;;;;;;;5014231;28;20439;-76
2022/07/02 07:14:19;;;;;;;8.13;1.85;;;;;;;;;;5016964;28;20403;-76
2022/07/02 07:16:45;;;;;;;5.10;1.63;;;;;;;;;;5001777;28;20071;-76
2022/07/02 07:19:12;;;;;;;4.57;1.80;;;;;;;;;;5017272;28;20048;-76
2022/07/02 07:21:39;;;;;;;4.80;1.88;;;;;;;;;;5017588;28;20112;-76
2022/07/02 07:24:06;;;;;;;4.85;1.52;;;;;;;;;;5017475;28;20041;-75
2022/07/02 07:26:32;;;;;;;4.50;1.70;;;;;;;;;;5001267;28;20054;-76
2022/07/02 07:28:58;;;;;;;5.05;1.75;;;;;;;;;;5014091;28;20042;-76
2022/07/02 07:31:25;;;;;;;6.65;2.33;;;;;;;;;;4997886;28;20092;-75
2022/07/02 07:33:52;;;;;;;7.15;2.10;;;;;;;;;;5014320;28;20045;-73
2022/07/02 07:36:22;;;;;;;4.60;1.75;;;;;;;;;;4997373;28;20096;-72
2022/07/02 07:38:49;;;;;;;4.53;1.80;;;;;;;;;;5014402;28;20046;-72
2022/07/02 07:41:15;;;;;;;6.47;2.05;;;;;;;;;;5013770;28;20070;-72
2022/07/02 07:43:41;;;;;;;5.18;1.50;;;;;;;;;;4994741;28;20098;-73
2022/07/02 07:46:07;;;;;;;5.10;1.60;;;;;;;;;;5007680;28;20033;-72
2022/07/02 07:48:34;;;;;;;4.75;1.70;;;;;;;;;;5014037;28;20120;-72
2022/07/02 07:51:00;;;;;;;4.97;2.05;;;;;;;;;;4997488;28;20041;-76
2022/07/02 07:53:26;;;;;;;4.05;1.80;;;;;;;;;;5013918;28;20042;-76
2022/07/02 07:55:53;;;;;;;4.50;1.80;;;;;;;;;;5014208;28;20050;-76
2022/07/02 07:58:20;;;;;;;5.63;1.60;;;;;;;;;;5013464;28;20050;-76
2022/07/02 08:00:47;;;;;;;4.97;1.90;;;;;;;;;;5013861;28;20050;-77
2022/07/02 08:03:17;;;;;;;3.85;1.48;;;;;;;;;;4997358;28;20052;-76
2022/07/02 08:05:47;;;;;;;5.72;1.30;;;;;;;;;;5013905;28;20053;-76
2022/07/02 08:08:16;;;;;;;4.55;1.60;;;;;;;;;;5013384;28;20097;-72
2022/07/02 08:10:42;;;;;;;2.95;1.27;;;;;;;;;;5013533;28;20081;-71
2022/07/02 08:13:08;;;;;;;4.05;1.38;;;;;;;;;;5013760;28;20048;-76
2022/07/02 08:15:34;;;;;;;4.65;1.40;;;;;;;;;;5013752;28;20449;-75
2022/07/02 08:18:01;;;;;;;3.67;1.17;;;;;;;;;;5013522;28;20034;-76
2022/07/02 08:20:27;;;;;;;2.53;1.00;;;;;;;;;;4997122;28;20475;-76
2022/07/02 08:22:53;;;;;;;4.00;1.23;;;;;;;;;;5013517;28;20477;-75
2022/07/02 08:25:19;;;;;;;3.83;1.02;;;;;;;;;;5012047;28;20057;-76
2022/07/02 08:27:45;;;;;;;4.75;1.10;;;;;;;;;;4997013;28;20046;-73
2022/07/02 08:30:12;;;;;;;4.60;0.98;;;;;;;;;;4996992;28;20077;-72
2022/07/02 08:32:38;;;;;;;2.25;1.10;;;;;;;;;;4981161;28;20045;-72
2022/07/02 08:35:05;;;;;;;4.13;1.00;;;;;;;;;;5022787;28;20648;-76
2022/07/02 08:37:31;;;;;;;3.63;1.00;;;;;;;;;;4996673;28;20095;-75
2022/07/02 08:39:57;;;;;;;3.05;0.70;;;;;;;;;;4996598;28;20034;-76
2022/07/02 08:42:27;;;;;;;2.78;0.95;;;;;;;;;;4996405;28;20042;-75
2022/07/02 08:44:54;;;;;;;3.33;0.88;;;;;;;;;;4996916;28;20379;-75
2022/07/02 08:47:21;;;;;;;3.05;0.90;;;;;;;;;;4996166;28;20050;-77
2022/07/02 08:49:47;;;;;;;2.95;0.88;;;;;;;;;;4996436;28;20042;-76
2022/07/02 08:52:20;;;;;;;2.35;0.90;;;;;;;;;;4996436;28;20038;-77
2022/07/02 08:54:47;;;;;;;2.00;0.73;;;;;;;;;;4996407;28;20048;-76
2022/07/02 08:57:13;;;;;;;3.42;0.75;;;;;;;;;;4995699;28;20045;-76
2022/07/02 08:59:40;;;;;;;2.72;0.70;;;;;;;;;;4996405;28;20069;-76
2022/07/02 09:02:07;;;;;;;2.75;0.80;;;;;;;;;;5012340;28;20434;-76
2022/07/02 09:04:34;;;;;;;3.17;1.27;;;;;;;;;;5012406;28;20048;-76
2022/07/02 09:07:02;;;;;;;2.90;0.88;;;;;;;;;;4996187;28;20038;-76
2022/07/02 09:09:28;;;;;;;1.77;0.60;;;;;;;;;;4995793;28;20034;-76
2022/07/02 09:11:55;;;;;;;1.83;0.60;;;;;;;;;;4996587;28;20502;-77
2022/07/02 09:14:21;;;;;;;3.33;0.60;;;;;;;;;;4996678;28;20042;-77
2022/07/02 09:16:48;;;;;;;2.45;0.70;;;;;;;;;;5014088;28;20494;-77
2022/07/02 09:19:15;;;;;;;2.75;0.73;;;;;;;;;;5012838;28;20052;-77
2022/07/02 09:21:51;;;;;;;2.03;0.50;;;;;;;;;;4996474;28;20030;-78
2022/07/02 09:24:36;;;;;;;3.13;0.73;;;;;;;;;;4996016;28;20049;-76
2022/07/02 09:27:07;;;;;;;1.60;0.60;;;;;;;;;;5012338;28;20120;-77
2022/07/02 09:29:55;;;;;;;1.80;0.70;;;;;;;;;;4995966;28;20460;-78
2022/07/02 09:32:21;;;;;;;3.00;0.70;;;;;;;;;;4995535;28;20100;-72
2022/07/02 09:34:48;;;;;;;1.38;0.50;;;;;;;;;;5008080;28;20041;-71
2022/07/02 09:37:21;;;;;;;1.90;0.65;;;;;;;;;;4994152;28;20045;-72
2022/07/02 09:39:48;;;;;;;1.85;0.60;;;;;;;;;;4995933;28;20552;-72
2022/07/02 09:42:28;;;;;;;2.40;0.60;;;;;;;;;;4995399;28;20092;-73
2022/07/02 09:44:54;;;;;;;2.03;0.50;;;;;;;;;;4995789;28;20037;-70
2022/07/02 09:47:31;;;;;;;1.08;0.32;;;;;;;;;;4995418;28;20041;-77
2022/07/02 09:49:57;;;;;;;1.10;0.50;;;;;;;;;;4995364;28;20041;-77
2022/07/02 09:52:23;;;;;;;4.50;0.63;;;;;;;;;;5003781;28;20034;-78
2022/07/02 09:54:49;;;;;;;1.55;0.50;;;;;;;;;;4995886;28;20502;-77
2022/07/02 09:57:15;;;;;;;1.73;0.60;;;;;;;;;;5012875;28;20042;-78
2022/07/02 09:59:41;;;;;;;0.77;0.40;;;;;;;;;;4995469;28;20045;-77
2022/07/02 10:02:22;;;;;;;1.08;0.40;;;;;;;;;;4979169;28;20041;-77
2022/07/02 10:04:50;;;;;;;2.03;0.45;;;;;;;;;;4995305;28;20042;-76
2022/07/02 10:07:16;;;;;;;1.40;0.50;;;;;;;;;;5012404;28;20046;-78
2022/07/02 10:09:42;;;;;;;2.67;0.50;;;;;;;;;;4995620;28;20491;-72
2022/07/02 10:12:08;;;;;;;1.40;0.47;;;;;;;;;;4995020;28;20057;-69
2022/07/02 10:14:35;;;;;;;1.40;0.50;;;;;;;;;;4994524;28;20061;-71
2022/07/02 10:17:02;;;;;;;2.25;0.60;;;;;;;;;;5003925;28;20042;-73
2022/07/02 10:19:29;;;;;;;2.63;0.60;;;;;;;;;;4995746;28;20096;-70
2022/07/02 10:21:55;;;;;;;2.40;0.55;;;;;;;;;;4995016;28;20053;-72
2022/07/02 10:24:22;;;;;;;1.60;0.40;;;;;;;;;;4994693;28;20049;-72
2022/07/02 10:26:48;;;;;;;1.30;0.50;;;;;;;;;;4994716;28;20136;-73
2022/07/02 10:29:16;;;;;;;2.10;0.50;;;;;;;;;;4994989;28;20456;-71
2022/07/02 10:31:46;;;;;;;1.23;0.50;;;;;;;;;;5010547;28;20120;-72
2022/07/02 10:34:31;;;;;;;2.38;0.57;;;;;;;;;;5002846;28;20443;-71
2022/07/02 10:36:58;;;;;;;2.28;0.50;;;;;;;;;;4998541;28;20081;-72
2022/07/02 10:46:48;;;;;;;1.77;0.60;;;;;;;;;;4914009;29;20517;-78
2022/07/02 10:49:24;;;;;;;3.78;0.50;;;;;;;;;;4885172;29;20045;-78
2022/07/02 10:51:53;;;;;;;1.35;0.50;;;;;;;;;;4927629;29;20047;-79
2022/07/02 10:54:30;;;;;;;1.48;0.57;;;;;;;;;;4959625;28;20057;-72
2022/07/02 10:56:56;;;;;;;3.30;0.60;;;;;;;;;;4994731;28;20397;-73
2022/07/02 10:59:25;;;;;;;1.80;0.50;;;;;;;;;;4994589;28;20058;-70
2022/07/02 11:02:21;;;;;;;2.55;0.60;;;;;;;;;;4994593;28;20046;-79
2022/07/02 11:04:48;;;;;;;2.08;0.50;;;;;;;;;;4986809;28;20050;-78
2022/07/02 11:07:14;;;;;;;3.75;0.63;;;;;;;;;;4994349;28;20073;-78
2022/07/02 11:10:01;;;;;;;2.28;0.60;;;;;;;;;;4994177;28;20034;-77
2022/07/02 11:12:28;;;;;;;1.63;0.50;;;;;;;;;;5011564;28;20113;-76
2022/07/02 11:14:55;;;;;;;2.85;0.60;;;;;;;;;;5012346;28;20095;-78
2022/07/02 11:17:26;;;;;;;1.00;0.47;;;;;;;;;;4994440;28;20068;-78
2022/07/02 11:19:54;;;;;;;2.10;0.60;;;;;;;;;;4981467;28;20395;-78
2022/07/02 11:22:21;;;;;;;2.05;0.63;;;;;;;;;;5011928;28;20410;-78
2022/07/02 11:24:47;;;;;;;1.85;0.68;;;;;;;;;;4995495;28;20053;-78
2022/07/02 11:27:15;;;;;;;1.45;0.55;;;;;;;;;;5030678;28;20164;-78
2022/07/02 11:29:51;;;;;;;2.38;0.60;;;;;;;;;;5013502;28;20038;-78
2022/07/02 11:32:23;;;;;;;3.80;0.70;;;;;;;;;;5013801;28;20033;-78
2022/07/02 11:34:59;;;;;;;1.88;0.50;;;;;;;;;;5013759;28;20045;-73
2022/07/02 11:37:25;;;;;;;1.70;0.60;;;;;;;;;;5013975;28;20094;-73
2022/07/02 11:39:51;;;;;;;2.28;0.50;;;;;;;;;;5013769;28;20037;-78
2022/07/02 11:42:18;;;;;;;2.25;0.70;;;;;;;;;;5014622;28;20136;-71
2022/07/02 11:44:44;;;;;;;1.50;0.75;;;;;;;;;;5031257;28;20041;-73
2022/07/02 11:47:10;;;;;;;1.35;0.40;;;;;;;;;;5031761;28;20077;-72
2022/07/02 11:49:37;;;;;;;1.95;0.60;;;;;;;;;;5013823;28;20080;-77
2022/07/02 11:52:05;;;;;;;3.22;0.60;;;;;;;;;;5013762;28;20056;-72
2022/07/02 11:54:31;;;;;;;2.17;0.52;;;;;;;;;;5013710;28;20088;-72
2022/07/02 11:56:57;;;;;;;2.28;0.70;;;;;;;;;;5031728;28;20052;-73
2022/07/02 11:59:24;;;;;;;1.77;0.52;;;;;;;;;;5031363;28;20053;-73
2022/07/02 12:01:50;;;;;;;2.17;0.70;;;;;;;;;;5016780;28;20059;-73
2022/07/02 12:04:18;;;;;;;2.28;0.70;;;;;;;;;;5033865;28;20103;-77
2022/07/02 12:06:46;;;;;;;1.23;0.57;;;;;;;;;;5034480;28;20458;-71
2022/07/02 12:09:14;;;;;;;2.47;0.50;;;;;;;;;;5016912;28;20052;-77
2022/07/02 12:11:40;;;;;;;5.45;0.75;;;;;;;;;;5016666;28;20068;-77
2022/07/02 12:14:07;;;;;;;3.00;0.80;;;;;;;;;;5035018;28;20037;-77
2022/07/02 12:16:34;;;;;;;1.83;0.60;;;;;;;;;;5016560;28;20041;-73
2022/07/02 12:19:07;;;;;;;1.38;0.60;;;;;;;;;;5017043;28;20091;-78
2022/07/02 12:21:44;;;;;;;1.65;0.60;;;;;;;;;;5016589;28;20087;-77
2022/07/02 12:24:28;;;;;;;1.20;0.40;;;;;;;;;;5017276;28;20037;-70
2022/07/02 12:26:58;;;;;;;2.05;0.70;;;;;;;;;;5004679;28;20045;-78
2022/07/02 12:29:53;;;;;;;1.60;0.60;;;;;;;;;;5016547;28;20124;-78
2022/07/02 12:32:20;;;;;;;1.90;0.52;;;;;;;;;;5017000;28;20188;-78
2022/07/02 12:34:48;;;;;;;2.60;0.50;;;;;;;;;;5016251;28;20124;-77
2022/07/02 12:37:26;;;;;;;1.08;0.50;;;;;;;;;;5016549;28;20041;-78
2022/07/02 12:40:11;;;;;;;2.60;0.50;;;;;;;;;;5016341;28;20527;-73
2022/07/02 12:42:57;;;;;;;1.90;0.60;;;;;;;;;;5016255;28;20088;-77
2022/07/02 12:45:32;;;;;;;2.05;0.60;;;;;;;;;;5016642;28;20401;-73
2022/07/02 12:48:04;;;;;;;2.43;0.60;;;;;;;;;;5016377;28;21016;-72
2022/07/02 12:50:38;;;;;;;1.13;0.50;;;;;;;;;;5020927;28;20033;-78
2022/07/02 12:53:05;;;;;;;2.72;0.70;;;;;;;;;;5032814;28;20520;-70
2022/07/02 12:55:33;;;;;;;2.00;0.60;;;;;;;;;;5016259;28;20034;-77
2022/07/02 12:58:01;;;;;;;2.17;0.50;;;;;;;;;;5016363;28;20387;-78
2022/07/02 13:00:27;;;;;;;2.58;0.60;;;;;;;;;;5015760;28;20030;-72
2022/07/02 13:02:57;;;;;;;3.30;0.63;;;;;;;;;;5016123;28;20445;-73
2022/07/02 13:05:23;;;;;;;1.35;0.57;;;;;;;;;;5015964;28;20095;-73
2022/07/02 13:07:49;;;;;;;1.90;0.68;;;;;;;;;;5032150;28;20080;-74
2022/07/02 13:10:15;;;;;;;2.50;0.70;;;;;;;;;;4999740;28;20053;-73
2022/07/02 13:12:41;;;;;;;4.63;0.70;;;;;;;;;;4999366;28;20490;-73
2022/07/02 13:15:13;;;;;;;1.90;0.60;;;;;;;;;;4999474;28;20175;-74
2022/07/02 13:17:39;;;;;;;1.40;0.50;;;;;;;;;;5015389;28;20049;-72
2022/07/02 13:20:05;;;;;;;2.28;0.60;;;;;;;;;;4999883;28;20389;-72
2022/07/02 13:22:31;;;;;;;1.50;0.50;;;;;;;;;;5015895;28;20043;-78
2022/07/02 13:24:58;;;;;;;3.28;0.70;;;;;;;;;;5015818;28;20406;-77
2022/07/02 13:27:24;;;;;;;1.77;0.60;;;;;;;;;;5032048;28;20093;-78
2022/07/02 13:29:51;;;;;;;2.60;0.60;;;;;;;;;;5033488;28;20048;-78
2022/07/02 13:32:17;;;;;;;1.30;0.57;;;;;;;;;;5033353;28;20124;-73
2022/07/02 13:34:43;;;;;;;1.20;0.60;;;;;;;;;;5014153;28;20052;-73
2022/07/02 13:37:09;;;;;;;1.83;0.50;;;;;;;;;;5015600;28;20037;-73
2022/07/02 13:39:35;;;;;;;1.50;0.63;;;;;;;;;;5015383;28;20405;-72
2022/07/02 13:42:02;;;;;;;4.00;0.60;;;;;;;;;;5015228;28;20041;-71
2022/07/02 13:44:30;;;;;;;3.72;0.80;;;;;;;;;;5032990;28;20096;-73
2022/07/02 13:46:56;;;;;;;1.75;0.70;;;;;;;;;;5015221;28;20552;-73
2022/07/02 13:49:22;;;;;;;2.22;0.90;;;;;;;;;;5032968;28;20477;-71
2022/07/02 13:51:49;;;;;;;3.72;0.80;;;;;;;;;;5015135;28;20033;-77
2022/07/02 13:54:15;;;;;;;2.33;0.60;;;;;;;;;;5015890;28;20095;-73
2022/07/02 13:56:41;;;;;;;2.25;0.68;;;;;;;;;;5032711;28;20128;-77
2022/07/02 13:59:07;;;;;;;2.65;0.70;;;;;;;;;;5015134;28;20065;-73
2022/07/02 14:01:33;;;;;;;1.95;0.70;;;;;;;;;;5032834;28;20390;-77
2022/07/02 14:04:00;;;;;;;2.65;0.80;;;;;;;;;;4998759;28;20037;-78
2022/07/02 14:06:27;;;;;;;2.05;0.70;;;;;;;;;;5015240;28;20116;-78
2022/07/02 14:08:53;;;;;;;2.70;0.73;;;;;;;;;;5031356;28;20120;-77
2022/07/02 14:11:20;;;;;;;3.22;0.80;;;;;;;;;;5001636;28;20073;-77
2022/07/02 14:13:46;;;;;;;2.20;0.80;;;;;;;;;;5014944;28;20048;-78
2022/07/02 14:16:12;;;;;;;4.10;0.90;;;;;;;;;;5014766;28;20044;-78
2022/07/02 14:18:38;;;;;;;1.60;0.65;;;;;;;;;;5031577;28;20041;-77
2022/07/02 14:21:05;;;;;;;1.33;0.65;;;;;;;;;;5014626;28;20060;-78
2022/07/02 14:23:32;;;;;;;3.67;0.80;;;;;;;;;;5014463;28;20457;-78
2022/07/02 14:25:58;;;;;;;2.92;0.80;;;;;;;;;;5014217;28;20152;-77
2022/07/02 14:28:24;;;;;;;3.03;0.73;;;;;;;;;;5014992;28;20130;-78
2022/07/02 14:30:51;;;;;;;3.08;0.80;;;;;;;;;;5014977;28;20045;-77
2022/07/02 14:33:17;;;;;;;2.30;0.90;;;;;;;;;;5014372;28;20041;-78
2022/07/02 14:35:47;;;;;;;3.20;0.80;;;;;;;;;;5014789;28;20048;-78
2022/07/02 14:38:14;;;;;;;4.78;1.00;;;;;;;;;;5014507;28;20073;-79
2022/07/02 14:40:40;;;;;;;2.97;0.82;;;;;;;;;;5014695;28;20057;-78
2022/07/02 14:43:06;;;;;;;4.30;0.80;;;;;;;;;;5014083;28;20045;-78
2022/07/02 14:45:32;;;;;;;1.77;0.70;;;;;;;;;;4998501;28;20088;-78
2022/07/02 14:47:59;;;;;;;2.53;0.70;;;;;;;;;;5014177;28;20133;-76
2022/07/02 14:50:25;;;;;;;2.80;1.20;;;;;;;;;;5014334;28;20099;-77
2022/07/02 14:52:51;;;;;;;2.58;1.30;;;;;;;;;;5014473;28;20494;-78
2022/07/02 14:55:17;;;;;;;3.20;1.10;;;;;;;;;;5032345;28;20099;-78